createdAt,value
2023-03-11T00:00:39.180Z,9.30
2023-03-11T00:03:24.377Z,9.10
2023-03-11T00:05:53.296Z,9.10
2023-03-11T00:08:23.728Z,9.10
2023-03-11T00:10:55.561Z,9.10
2023-03-11T00:13:22.834Z,8.60
2023-03-11T00:15:52.193Z,9.10
2023-03-11T00:18:19.072Z,8.60
2023-03-11T00:20:46.826Z,9.10
2023-03-11T00:23:15.051Z,10.10
2023-03-11T00:25:44.097Z,8.60
2023-03-11T00:28:11.770Z,9.50
2023-03-11T00:30:40.648Z,9.00
2023-03-11T00:33:08.703Z,9.00
2023-03-11T00:35:35.541Z,9.90
2023-03-11T00:38:05.635Z,9.30
2023-03-11T00:40:34.260Z,10.50
2023-03-11T00:43:02.641Z,10.90
2023-03-11T00:45:29.784Z,12.00
2023-03-11T00:47:56.805Z,12.10
2023-03-11T00:50:35.421Z,11.90
2023-03-11T00:53:03.720Z,12.70
2023-03-11T00:55:33.028Z,11.10
2023-03-11T00:58:06.213Z,11.50
2023-03-11T01:00:39.656Z,11.30
2023-03-11T01:03:06.745Z,11.00
2023-03-11T01:05:34.318Z,12.20
2023-03-11T01:08:03.660Z,12.30
2023-03-11T01:10:31.892Z,12.60
2023-03-11T01:12:58.833Z,14.30
2023-03-11T01:15:30.467Z,11.40
2023-03-11T01:17:59.526Z,13.60
2023-03-11T01:20:26.439Z,13.90
2023-03-11T01:22:53.323Z,14.90
2023-03-11T01:25:21.521Z,15.20
2023-03-11T01:27:48.344Z,15.80
2023-03-11T01:30:19.640Z,14.50
2023-03-11T01:32:46.618Z,17.40
2023-03-11T01:35:16.848Z,16.80
2023-03-11T01:37:44.039Z,18.90
2023-03-11T01:40:35.450Z,19.60
2023-03-11T01:43:26.947Z,21.20
2023-03-11T01:45:54.318Z,19.10
2023-03-11T01:48:24.316Z,22.30
2023-03-11T01:50:51.610Z,23.60
2023-03-11T01:53:18.632Z,23.40
2023-03-11T01:55:47.590Z,23.60
2023-03-11T01:58:20.658Z,24.60
2023-03-11T02:00:47.410Z,24.50
2023-03-11T02:03:21.672Z,25.90
2023-03-11T02:05:49.663Z,26.70
2023-03-11T02:08:16.413Z,26.40
2023-03-11T02:10:44.057Z,27.30
2023-03-11T02:13:11.384Z,27.50
2023-03-11T02:15:39.921Z,31.50
2023-03-11T02:18:08.267Z,29.70
2023-03-11T02:20:45.032Z,26.80
2023-03-11T02:23:14.528Z,29.50
2023-03-11T02:25:59.817Z,27.30
2023-03-11T02:28:28.088Z,26.90
2023-03-11T02:30:56.692Z,29.60
2023-03-11T02:33:29.275Z,29.40
2023-03-11T02:35:57.029Z,25.10
2023-03-11T02:38:24.141Z,25.50
2023-03-11T02:41:01.844Z,26.60
2023-03-11T02:43:43.174Z,27.60
2023-03-11T02:46:12.413Z,25.00
2023-03-11T02:48:40.086Z,26.20
2023-03-11T02:51:07.507Z,26.80
2023-03-11T02:53:41.124Z,28.70
2023-03-11T02:56:07.830Z,26.60
2023-03-11T02:58:34.977Z,26.00
2023-03-11T03:01:01.893Z,23.80
2023-03-11T03:03:29.222Z,23.90
2023-03-11T03:05:56.049Z,24.60
2023-03-11T03:08:23.030Z,22.80
2023-03-11T03:10:49.817Z,24.30
2023-03-11T03:13:17.509Z,22.50
2023-03-11T03:15:44.751Z,25.20
2023-03-11T03:18:11.713Z,23.50
2023-03-11T03:20:38.555Z,23.00
2023-03-11T03:23:05.510Z,22.80
2023-03-11T03:25:32.484Z,25.00
2023-03-11T03:28:02.668Z,21.30
2023-03-11T03:30:30.180Z,22.90
2023-03-11T03:32:56.995Z,25.90
2023-03-11T03:35:24.150Z,25.20
2023-03-11T03:38:14.572Z,27.10
2023-03-11T03:40:46.105Z,22.40
2023-03-11T03:43:14.371Z,25.20
2023-03-11T03:45:43.043Z,23.50
2023-03-11T03:48:09.968Z,24.00
2023-03-11T03:50:40.214Z,21.50
2023-03-11T03:53:07.418Z,24.60
2023-03-11T03:55:34.274Z,23.70
2023-03-11T03:58:01.569Z,24.90
2023-03-11T04:00:30.988Z,23.60
2023-03-11T04:02:59.162Z,25.10
2023-03-11T04:05:32.631Z,23.90
2023-03-11T04:08:00.119Z,22.70
2023-03-11T04:10:27.863Z,20.30
2023-03-11T04:12:54.913Z,22.60
2023-03-11T04:15:21.751Z,23.00
2023-03-11T04:17:48.878Z,24.60
2023-03-11T04:20:15.824Z,22.50
2023-03-11T04:22:44.685Z,21.50
2023-03-11T04:25:11.832Z,22.90
2023-03-11T04:27:42.229Z,22.50
2023-03-11T04:30:10.386Z,21.30
2023-03-11T04:32:37.355Z,22.20
2023-03-11T04:35:05.531Z,22.20
2023-03-11T04:37:33.352Z,20.90
2023-03-11T04:40:00.267Z,31.60
2023-03-11T04:42:27.197Z,28.60
2023-03-11T04:44:54.682Z,24.30
2023-03-11T04:47:21.719Z,26.90
2023-03-11T04:49:48.961Z,29.70
2023-03-11T04:52:15.737Z,21.20
2023-03-11T04:54:42.612Z,21.60
2023-03-11T04:57:09.613Z,20.70
2023-03-11T04:59:37.679Z,22.00
2023-03-11T05:02:05.099Z,19.70
2023-03-11T05:04:32.795Z,18.70
2023-03-11T05:07:00.148Z,20.40
2023-03-11T05:09:26.929Z,24.10
2023-03-11T05:11:54.008Z,23.10
2023-03-11T05:14:21.256Z,24.40
2023-03-11T05:16:49.513Z,19.60
2023-03-11T05:19:34.189Z,19.30
2023-03-11T05:22:07.096Z,16.80
2023-03-11T05:24:34.036Z,18.40
2023-03-11T05:27:01.910Z,18.20
2023-03-11T05:29:31.188Z,19.00
2023-03-11T05:31:59.132Z,21.50
2023-03-11T05:34:25.967Z,20.80
2023-03-11T05:36:53.002Z,21.20
2023-03-11T05:39:20.222Z,22.60
2023-03-11T05:41:47.713Z,22.80
2023-03-11T05:44:15.129Z,23.80
2023-03-11T05:46:42.382Z,20.20
2023-03-11T05:49:10.199Z,20.50
2023-03-11T05:51:37.717Z,19.60
2023-03-11T05:54:06.857Z,20.60
2023-03-11T05:56:37.390Z,21.30
2023-03-11T05:59:04.409Z,19.40
2023-03-11T06:01:33.788Z,18.80
2023-03-11T06:04:01.023Z,19.60
2023-03-11T06:06:28.120Z,16.60
2023-03-11T06:08:55.765Z,19.50
2023-03-11T06:11:26.431Z,19.00
2023-03-11T06:13:54.759Z,17.00
2023-03-11T06:16:22.858Z,19.00
2023-03-11T06:18:50.795Z,16.80
2023-03-11T06:21:21.091Z,16.50
2023-03-11T06:23:49.092Z,15.80
2023-03-11T06:26:19.830Z,16.70
2023-03-11T06:28:47.851Z,15.20
2023-03-11T06:31:27.663Z,15.90
2023-03-11T06:33:58.900Z,14.40
2023-03-11T06:36:26.365Z,14.00
2023-03-11T06:38:53.988Z,15.80
2023-03-11T06:41:22.188Z,13.10
2023-03-11T06:43:49.627Z,12.70
2023-03-11T06:46:22.713Z,14.40
2023-03-11T06:48:51.861Z,13.70
2023-03-11T06:51:20.608Z,13.80
2023-03-11T06:53:52.538Z,12.60
2023-03-11T06:56:21.985Z,13.00
2023-03-11T06:58:53.283Z,12.50
2023-03-11T07:01:23.186Z,12.50
2023-03-11T07:03:51.490Z,11.70
2023-03-11T07:06:22.504Z,12.50
2023-03-11T07:08:52.011Z,68.50
2023-03-11T07:11:21.996Z,49.50
2023-03-11T07:13:50.682Z,21.30
2023-03-11T07:16:21.170Z,20.00
2023-03-11T07:18:49.723Z,11.00
2023-03-11T07:21:20.012Z,9.40
2023-03-11T07:23:48.785Z,9.80
2023-03-11T07:26:17.548Z,11.10
2023-03-11T07:28:45.279Z,10.30
2023-03-11T07:31:15.474Z,10.30
2023-03-11T07:33:42.647Z,9.80
2023-03-11T07:36:12.769Z,9.80
2023-03-11T07:38:41.808Z,9.50
2023-03-11T07:41:14.201Z,18.20
2023-03-11T07:43:42.441Z,13.90
2023-03-11T07:46:22.219Z,12.80
2023-03-11T07:48:50.447Z,13.80
2023-03-11T07:51:21.032Z,15.50
2023-03-11T07:53:48.443Z,15.20
2023-03-11T07:56:16.513Z,13.10
2023-03-11T07:58:45.705Z,15.80
2023-03-11T08:01:18.278Z,16.10
2023-03-11T08:03:47.214Z,15.10
2023-03-11T08:06:20.115Z,15.20
2023-03-11T08:08:48.666Z,15.20
2023-03-11T08:11:16.996Z,14.60
2023-03-11T08:13:45.797Z,16.60
2023-03-11T08:16:15.559Z,15.90
2023-03-11T08:18:43.363Z,14.30
2023-03-11T08:21:19.117Z,15.50
2023-03-11T08:23:45.964Z,13.70
2023-03-11T08:26:16.736Z,14.90
2023-03-11T08:28:44.230Z,13.90
2023-03-11T08:31:20.343Z,12.20
2023-03-11T08:33:51.983Z,12.20
2023-03-11T08:36:20.637Z,13.40
2023-03-11T08:38:47.726Z,13.10
2023-03-11T08:41:15.401Z,13.90
2023-03-11T08:43:42.433Z,12.30
2023-03-11T08:46:15.620Z,13.30
2023-03-11T08:48:42.888Z,13.40
2023-03-11T08:51:13.663Z,14.10
2023-03-11T08:53:40.674Z,14.00
2023-03-11T08:56:07.808Z,14.50
2023-03-11T08:58:34.998Z,13.40
2023-03-11T09:01:01.857Z,12.60
2023-03-11T09:03:31.896Z,13.20
2023-03-11T09:06:01.329Z,12.60
2023-03-11T09:08:29.140Z,16.10
2023-03-11T09:10:56.150Z,13.60
2023-03-11T09:13:23.166Z,14.60
2023-03-11T09:15:51.077Z,14.90
2023-03-11T09:18:18.813Z,11.40
2023-03-11T09:20:46.291Z,12.50
2023-03-11T09:23:16.013Z,11.50
2023-03-11T09:25:43.024Z,9.90
2023-03-11T09:28:09.959Z,9.30
2023-03-11T09:30:36.927Z,9.10
2023-03-11T09:33:04.118Z,7.70
2023-03-11T09:35:31.149Z,8.00
2023-03-11T09:37:58.561Z,8.10
2023-03-11T09:40:31.013Z,7.70
2023-03-11T09:43:35.530Z,7.10
2023-03-11T09:46:30.151Z,7.20
2023-03-11T09:51:42.752Z,10.10
2023-03-11T09:54:11.352Z,8.60
2023-03-11T09:56:41.936Z,11.90
2023-03-11T09:59:30.169Z,11.40
2023-03-11T10:01:58.163Z,10.10
2023-03-11T10:04:32.649Z,11.10
2023-03-11T10:07:02.651Z,9.40
2023-03-11T10:09:32.345Z,11.00
2023-03-11T10:12:09.177Z,11.40
2023-03-11T10:14:42.539Z,9.40
2023-03-11T10:17:45.105Z,11.40
2023-03-11T10:20:22.214Z,11.50
2023-03-11T10:23:04.744Z,11.80
2023-03-11T10:25:50.436Z,9.70
2023-03-11T10:28:20.386Z,9.40
2023-03-11T10:30:57.457Z,12.20
2023-03-11T10:33:26.481Z,12.20
2023-03-11T10:35:56.355Z,9.60
2023-03-11T10:38:31.763Z,9.30
2023-03-11T10:41:04.481Z,9.80
2023-03-11T10:43:41.169Z,6.10
2023-03-11T10:46:18.752Z,6.10
2023-03-11T10:48:45.583Z,9.70
2023-03-11T10:51:22.336Z,7.30
2023-03-11T10:53:55.211Z,7.40
2023-03-11T10:56:33.035Z,5.50
2023-03-11T10:59:01.534Z,8.20
2023-03-11T11:01:29.555Z,9.80
2023-03-11T11:04:00.229Z,6.80
2023-03-11T11:06:30.025Z,7.00
2023-03-11T11:09:18.969Z,6.60
2023-03-11T11:12:14.202Z,6.30
2023-03-11T11:14:52.272Z,6.90
2023-03-11T11:17:31.232Z,6.00
2023-03-11T11:19:59.339Z,6.80
2023-03-11T11:22:28.099Z,5.40
2023-03-11T11:24:55.694Z,6.30
2023-03-11T11:27:22.430Z,5.20
2023-03-11T11:30:09.460Z,5.20
2023-03-11T11:32:37.296Z,5.30
2023-03-11T11:35:14.597Z,4.20
2023-03-11T11:37:51.150Z,4.80
2023-03-11T11:40:23.997Z,5.30
2023-03-11T11:42:50.656Z,6.30
2023-03-11T11:45:41.128Z,5.10
2023-03-11T11:48:34.113Z,6.50
2023-03-11T11:51:08.460Z,5.60
2023-03-11T11:53:48.133Z,5.80
2023-03-11T11:56:15.086Z,4.20
2023-03-11T11:58:41.851Z,5.20
2023-03-11T12:01:26.478Z,5.90
2023-03-11T12:04:29.732Z,5.50
2023-03-11T12:07:11.511Z,5.00
2023-03-11T12:09:49.390Z,4.90
2023-03-11T12:12:37.679Z,4.70
2023-03-11T12:15:11.956Z,5.50
2023-03-11T12:17:44.118Z,5.20
2023-03-11T12:20:13.824Z,5.40
2023-03-11T12:22:59.243Z,4.10
2023-03-11T12:25:25.935Z,5.10
2023-03-11T12:28:38.015Z,4.90
2023-03-11T12:31:09.871Z,5.00
2023-03-11T12:34:01.971Z,5.00
2023-03-11T12:36:31.555Z,5.50
2023-03-11T12:39:00.852Z,5.60
2023-03-11T12:41:27.769Z,5.40
2023-03-11T12:44:00.833Z,11.40
2023-03-11T12:46:59.217Z,8.20
2023-03-11T12:49:30.154Z,6.90
2023-03-11T12:52:01.341Z,5.30
2023-03-11T12:54:33.949Z,4.30
2023-03-11T12:57:12.868Z,4.70
2023-03-11T12:59:58.510Z,4.70
2023-03-11T13:02:56.495Z,4.30
2023-03-11T13:05:45.104Z,3.90
2023-03-11T13:08:28.691Z,5.30
2023-03-11T13:10:56.099Z,5.30
2023-03-11T13:13:42.220Z,5.20
2023-03-11T13:16:12.062Z,5.90
2023-03-11T13:18:40.700Z,5.60
2023-03-11T13:21:38.556Z,6.20
2023-03-11T13:24:21.604Z,5.90
2023-03-11T13:26:50.470Z,6.50
2023-03-11T13:29:42.161Z,6.30
2023-03-11T13:32:40.216Z,5.90
2023-03-11T13:35:19.097Z,6.20
2023-03-11T13:38:11.299Z,6.60
2023-03-11T13:40:40.908Z,5.90
2023-03-11T13:43:16.508Z,5.70
2023-03-11T13:45:50.615Z,5.20
2023-03-11T13:48:25.766Z,6.30
2023-03-11T13:51:01.665Z,6.30
2023-03-11T13:53:45.566Z,5.20
2023-03-11T13:56:41.712Z,4.40
2023-03-11T13:59:26.592Z,3.70
2023-03-11T14:01:56.514Z,3.20
2023-03-11T14:04:27.979Z,2.80
2023-03-11T14:06:55.206Z,2.50
2023-03-11T14:09:25.031Z,2.20
2023-03-11T14:12:03.610Z,2.30
2023-03-11T14:14:42.326Z,2.30
2023-03-11T14:17:19.935Z,2.00
2023-03-11T14:20:12.064Z,2.10
2023-03-11T14:22:38.955Z,2.20
2023-03-11T14:25:09.671Z,2.40
2023-03-11T14:27:45.407Z,3.10
2023-03-11T14:30:20.064Z,3.30
2023-03-11T14:33:00.823Z,2.90
2023-03-11T14:35:28.332Z,2.40
2023-03-11T14:37:55.585Z,2.60
2023-03-11T14:40:37.315Z,3.30
2023-03-11T14:43:07.459Z,3.10
2023-03-11T14:45:36.964Z,2.70
2023-03-11T14:48:14.787Z,2.30
2023-03-11T14:50:46.650Z,2.60
2023-03-11T14:53:17.237Z,2.90
2023-03-11T14:55:56.291Z,2.20
2023-03-11T14:58:26.137Z,2.80
2023-03-11T15:01:01.781Z,2.60
2023-03-11T15:03:44.726Z,1.70
2023-03-11T15:06:24.969Z,1.90
2023-03-11T15:09:01.390Z,1.80
2023-03-11T15:11:28.789Z,1.60
2023-03-11T15:14:14.517Z,2.30
2023-03-11T15:16:41.467Z,2.00
2023-03-11T15:19:27.574Z,2.10
2023-03-11T15:22:05.962Z,1.10
2023-03-11T15:24:34.218Z,1.30
2023-03-11T15:27:04.875Z,1.20
2023-03-11T15:29:33.767Z,1.00
2023-03-11T15:32:20.752Z,0.90
2023-03-11T15:34:59.455Z,1.00
2023-03-11T15:37:26.789Z,0.80
2023-03-11T15:39:58.074Z,1.00
2023-03-11T15:42:26.057Z,0.90
2023-03-11T15:45:08.110Z,1.50
2023-03-11T15:47:35.738Z,1.70
2023-03-11T15:50:23.615Z,2.00
2023-03-11T15:52:52.871Z,1.50
2023-03-11T15:55:20.220Z,1.80
2023-03-11T15:57:48.730Z,2.00
2023-03-11T16:00:19.448Z,1.70
2023-03-11T16:02:46.445Z,1.10
2023-03-11T16:05:19.445Z,2.10
2023-03-11T16:07:46.389Z,1.90
2023-03-11T16:10:16.086Z,1.80
2023-03-11T16:12:43.088Z,1.90
2023-03-11T16:15:21.868Z,1.80
2023-03-11T16:17:50.382Z,1.90
2023-03-11T16:20:19.162Z,1.90
2023-03-11T16:22:48.871Z,1.90
2023-03-11T16:25:33.254Z,1.80
2023-03-11T16:28:01.055Z,1.00
2023-03-11T16:30:31.181Z,1.30
2023-03-11T16:32:58.196Z,1.70
2023-03-11T16:35:25.698Z,1.80
2023-03-11T16:37:53.169Z,1.70
2023-03-11T16:40:25.354Z,2.00
2023-03-11T16:42:59.594Z,1.70
2023-03-11T16:47:53.898Z,1.70
2023-03-11T16:50:24.058Z,1.40
2023-03-11T16:52:51.841Z,1.30
2023-03-11T16:55:19.421Z,2.00
2023-03-11T16:57:46.412Z,1.60
2023-03-11T17:00:15.168Z,1.70
2023-03-11T17:02:41.976Z,1.40
2023-03-11T17:05:09.970Z,0.90
2023-03-11T17:07:39.422Z,1.30
2023-03-11T17:10:08.845Z,2.00
2023-03-11T17:12:35.940Z,1.90
2023-03-11T17:15:05.501Z,1.70
2023-03-11T17:17:32.493Z,1.90
2023-03-11T17:19:59.321Z,1.60
2023-03-11T17:22:26.163Z,1.80
2023-03-11T17:24:53.105Z,1.70
2023-03-11T17:27:19.881Z,1.70
2023-03-11T17:29:46.679Z,1.50
2023-03-11T17:32:17.244Z,1.40
2023-03-11T17:34:45.291Z,1.80
2023-03-11T17:37:13.707Z,1.40
2023-03-11T17:39:40.466Z,1.70
2023-03-11T17:42:08.190Z,2.30
2023-03-11T17:44:50.290Z,2.10
2023-03-11T17:47:19.080Z,2.00
2023-03-11T17:49:46.213Z,2.30
2023-03-11T17:52:13.086Z,2.60
2023-03-11T17:54:39.881Z,3.00
2023-03-11T17:57:06.645Z,2.80
2023-03-11T17:59:33.436Z,2.00
2023-03-11T18:02:01.541Z,1.50
2023-03-11T18:04:28.823Z,2.00
2023-03-11T18:06:55.816Z,1.70
2023-03-11T18:09:22.865Z,2.00
2023-03-11T18:11:49.766Z,1.90
2023-03-11T18:14:16.547Z,2.20
2023-03-11T18:16:43.355Z,1.80
2023-03-11T18:19:10.181Z,1.60
2023-03-11T18:21:36.970Z,1.60
2023-03-11T18:24:04.283Z,1.80
2023-03-11T18:26:31.110Z,2.40
2023-03-11T18:28:59.389Z,2.70
2023-03-11T18:31:27.775Z,2.20
2023-03-11T18:34:03.360Z,2.60
2023-03-11T18:36:32.980Z,2.30
2023-03-11T18:39:00.702Z,2.50
2023-03-11T18:41:31.077Z,2.40
2023-03-11T18:43:58.924Z,2.40
2023-03-11T18:46:28.020Z,2.10
2023-03-11T18:48:59.811Z,2.40
2023-03-11T18:51:28.942Z,2.00
2023-03-11T18:53:55.837Z,1.90
2023-03-11T18:56:22.762Z,2.10
2023-03-11T18:58:49.477Z,6.10
2023-03-11T19:01:18.834Z,8.10
2023-03-11T19:03:54.317Z,16.70
2023-03-11T19:06:22.526Z,6.00
2023-03-11T19:08:50.146Z,9.90
2023-03-11T19:11:20.322Z,14.30
2023-03-11T19:13:48.202Z,6.50
2023-03-11T19:16:18.127Z,5.40
2023-03-11T19:18:47.163Z,6.10
2023-03-11T19:21:16.524Z,6.40
2023-03-11T19:23:44.481Z,6.70
2023-03-11T19:26:11.660Z,5.00
2023-03-11T19:28:38.493Z,5.40
2023-03-11T19:31:05.597Z,2.10
2023-03-11T19:33:33.198Z,3.90
2023-03-11T19:36:03.717Z,3.60
2023-03-11T19:38:30.847Z,2.30
2023-03-11T19:41:04.723Z,3.70
2023-03-11T19:43:32.916Z,2.70
2023-03-11T19:46:00.437Z,4.90
2023-03-11T19:48:27.515Z,1.50
2023-03-11T19:50:54.336Z,3.20
2023-03-11T19:53:22.700Z,2.50
2023-03-11T19:55:54.535Z,1.20
2023-03-11T19:58:23.347Z,1.50
2023-03-11T20:00:50.718Z,1.20
2023-03-11T20:03:18.180Z,1.20
2023-03-11T20:05:46.767Z,1.00
2023-03-11T20:08:17.657Z,0.90
2023-03-11T20:10:47.771Z,0.80
2023-03-11T20:13:16.083Z,1.00
2023-03-11T20:15:43.461Z,1.30
2023-03-11T20:18:10.399Z,1.10
2023-03-11T20:20:38.935Z,1.40
2023-03-11T20:23:05.771Z,1.50
2023-03-11T20:25:32.696Z,1.30
2023-03-11T20:27:59.924Z,1.80
2023-03-11T20:30:27.630Z,1.40
2023-03-11T20:32:54.587Z,1.50
2023-03-11T20:35:22.047Z,1.20
2023-03-11T20:37:49.272Z,1.60
2023-03-11T20:40:17.805Z,1.70
2023-03-11T20:42:46.549Z,2.10
2023-03-11T20:45:21.185Z,1.80
2023-03-11T20:47:48.993Z,3.30
2023-03-11T20:50:16.838Z,2.80
2023-03-11T20:52:43.880Z,1.70
2023-03-11T20:55:11.437Z,2.10
2023-03-11T20:57:39.491Z,1.20
2023-03-11T21:00:10.671Z,1.50
2023-03-11T21:02:39.230Z,1.30
2023-03-11T21:05:08.086Z,1.60
2023-03-11T21:07:35.748Z,1.10
2023-03-11T21:10:05.801Z,1.80
2023-03-11T21:12:32.607Z,1.60
2023-03-11T21:14:59.417Z,1.60
2023-03-11T21:17:26.454Z,1.40
2023-03-11T21:19:53.291Z,1.60
2023-03-11T21:22:20.197Z,1.50
2023-03-11T21:24:54.117Z,1.60
2023-03-11T21:27:25.725Z,0.80
2023-03-11T21:29:56.313Z,2.00
2023-03-11T21:32:24.980Z,1.20
2023-03-11T21:34:59.522Z,1.80
2023-03-11T21:37:27.175Z,1.10
2023-03-11T21:39:54.256Z,1.30
2023-03-11T21:42:21.576Z,1.60
2023-03-11T21:44:48.510Z,2.10
2023-03-11T21:47:15.298Z,1.60
2023-03-11T21:49:42.141Z,1.80
2023-03-11T21:52:09.244Z,1.60
2023-03-11T21:54:36.143Z,1.10
2023-03-11T21:57:03.219Z,1.90
2023-03-11T21:59:30.413Z,1.60
2023-03-11T22:02:00.803Z,2.20
2023-03-11T22:04:28.148Z,1.30
2023-03-11T22:06:57.051Z,2.10
2023-03-11T22:09:25.389Z,2.10
2023-03-11T22:11:52.242Z,1.90
2023-03-11T22:14:19.075Z,1.70
2023-03-11T22:16:45.966Z,1.60
2023-03-11T22:19:12.937Z,1.80
2023-03-11T22:21:39.797Z,1.80
2023-03-11T22:24:06.892Z,1.50
2023-03-11T22:26:33.709Z,1.10
2023-03-11T22:29:02.464Z,1.50
2023-03-11T22:31:31.174Z,1.40
2023-03-11T22:33:58.000Z,1.50
2023-03-11T22:36:24.933Z,1.40
2023-03-11T22:38:51.817Z,1.60
2023-03-11T22:41:19.748Z,1.20
2023-03-11T22:43:46.941Z,1.30
2023-03-11T22:46:14.184Z,1.00
2023-03-11T22:48:41.463Z,1.20
2023-03-11T22:51:08.374Z,1.60
2023-03-11T22:53:35.413Z,1.10
2023-03-11T22:56:13.888Z,0.80
2023-03-11T22:58:41.682Z,1.40
2023-03-11T23:01:09.006Z,1.40
2023-03-11T23:03:36.352Z,1.30
2023-03-11T23:06:05.980Z,1.20
2023-03-11T23:08:33.310Z,1.10
2023-03-11T23:11:09.168Z,1.40
2023-03-11T23:13:37.730Z,1.10
2023-03-11T23:16:16.619Z,1.00
2023-03-11T23:18:45.366Z,1.20
2023-03-11T23:21:30.500Z,0.90
2023-03-11T23:24:00.095Z,1.20
2023-03-11T23:26:28.996Z,1.00
2023-03-11T23:28:55.815Z,1.00
2023-03-11T23:31:24.650Z,1.10
2023-03-11T23:33:51.573Z,1.10
2023-03-11T23:36:20.234Z,1.00
2023-03-11T23:38:47.663Z,1.00
2023-03-11T23:41:17.315Z,0.90
2023-03-11T23:43:44.760Z,1.00
2023-03-11T23:46:11.691Z,1.10
2023-03-11T23:48:38.711Z,0.90
2023-03-11T23:51:05.795Z,1.00
2023-03-11T23:53:32.573Z,0.80
2023-03-11T23:55:59.804Z,1.10
2023-03-11T23:58:26.695Z,0.90
